sensor_id;sensor_type;location;lat;lon;timestamp;P1;durP1;ratioP1;P2;durP2;ratioP2
7191;SDS011;3637;51.494;11.958;2023-05-07T00:02:54;10.17;;;7.80;;
7191;SDS011;3637;51.494;11.958;2023-05-07T00:05:55;10.47;;;7.50;;
7191;SDS011;3637;51.494;11.958;2023-05-07T00:08:58;10.43;;;7.53;;
7191;SDS011;3637;51.494;11.958;2023-05-07T00:12:00;10.80;;;8.53;;
7191;SDS011;3637;51.494;11.958;2023-05-07T00:15:03;11.13;;;8.13;;
7191;SDS011;3637;51.494;11.958;2023-05-07T00:18:06;11.43;;;8.27;;
7191;SDS011;3637;51.494;11.958;2023-05-07T00:21:08;15.00;;;8.93;;
7191;SDS011;3637;51.494;11.958;2023-05-07T00:24:10;15.67;;;7.87;;
7191;SDS011;3637;51.494;11.958;2023-05-07T00:27:12;10.30;;;7.30;;
7191;SDS011;3637;51.494;11.958;2023-05-07T00:30:14;13.77;;;8.27;;
7191;SDS011;3637;51.494;11.958;2023-05-07T00:33:17;11.83;;;7.07;;
7191;SDS011;3637;51.494;11.958;2023-05-07T00:36:20;8.67;;;6.70;;
7191;SDS011;3637;51.494;11.958;2023-05-07T00:39:22;10.77;;;7.10;;
7191;SDS011;3637;51.494;11.958;2023-05-07T00:42:24;10.67;;;6.60;;
7191;SDS011;3637;51.494;11.958;2023-05-07T00:45:26;7.90;;;6.67;;
7191;SDS011;3637;51.494;11.958;2023-05-07T00:48:30;9.50;;;6.97;;
7191;SDS011;3637;51.494;11.958;2023-05-07T00:51:32;9.43;;;6.63;;
7191;SDS011;3637;51.494;11.958;2023-05-07T00:54:34;8.40;;;6.00;;
7191;SDS011;3637;51.494;11.958;2023-05-07T00:57:37;10.23;;;6.90;;
7191;SDS011;3637;51.494;11.958;2023-05-07T01:00:40;8.77;;;6.87;;
7191;SDS011;3637;51.494;11.958;2023-05-07T01:03:43;9.23;;;7.37;;
7191;SDS011;3637;51.494;11.958;2023-05-07T01:06:45;8.83;;;7.10;;
7191;SDS011;3637;51.494;11.958;2023-05-07T01:09:47;8.73;;;7.03;;
7191;SDS011;3637;51.494;11.958;2023-05-07T01:12:49;10.10;;;7.03;;
7191;SDS011;3637;51.494;11.958;2023-05-07T01:15:52;8.00;;;6.63;;
7191;SDS011;3637;51.494;11.958;2023-05-07T01:18:58;12.13;;;7.13;;
7191;SDS011;3637;51.494;11.958;2023-05-07T01:22:01;11.00;;;8.20;;
7191;SDS011;3637;51.494;11.958;2023-05-07T01:25:06;9.07;;;6.73;;
7191;SDS011;3637;51.494;11.958;2023-05-07T01:28:08;10.23;;;7.13;;
7191;SDS011;3637;51.494;11.958;2023-05-07T01:31:10;8.47;;;6.47;;
7191;SDS011;3637;51.494;11.958;2023-05-07T01:34:14;8.90;;;6.70;;
7191;SDS011;3637;51.494;11.958;2023-05-07T01:37:18;8.53;;;7.00;;
7191;SDS011;3637;51.494;11.958;2023-05-07T01:40:22;8.20;;;6.83;;
7191;SDS011;3637;51.494;11.958;2023-05-07T01:43:24;7.40;;;6.30;;
7191;SDS011;3637;51.494;11.958;2023-05-07T01:46:26;8.03;;;6.80;;
7191;SDS011;3637;51.494;11.958;2023-05-07T01:49:29;7.50;;;6.47;;
7191;SDS011;3637;51.494;11.958;2023-05-07T01:52:31;7.97;;;6.27;;
7191;SDS011;3637;51.494;11.958;2023-05-07T01:55:34;9.07;;;7.30;;
7191;SDS011;3637;51.494;11.958;2023-05-07T01:58:36;8.17;;;6.33;;
7191;SDS011;3637;51.494;11.958;2023-05-07T02:01:38;9.27;;;6.73;;
7191;SDS011;3637;51.494;11.958;2023-05-07T02:04:40;7.63;;;6.53;;
7191;SDS011;3637;51.494;11.958;2023-05-07T02:07:42;8.27;;;6.23;;
7191;SDS011;3637;51.494;11.958;2023-05-07T02:10:45;7.67;;;5.93;;
7191;SDS011;3637;51.494;11.958;2023-05-07T02:13:47;8.23;;;6.50;;
7191;SDS011;3637;51.494;11.958;2023-05-07T02:16:56;9.10;;;6.70;;
7191;SDS011;3637;51.494;11.958;2023-05-07T02:19:57;8.57;;;6.50;;
7191;SDS011;3637;51.494;11.958;2023-05-07T02:22:59;9.03;;;6.17;;
7191;SDS011;3637;51.494;11.958;2023-05-07T02:26:03;7.97;;;6.50;;
7191;SDS011;3637;51.494;11.958;2023-05-07T02:29:05;6.23;;;5.63;;
7191;SDS011;3637;51.494;11.958;2023-05-07T02:32:07;8.53;;;6.10;;
7191;SDS011;3637;51.494;11.958;2023-05-07T02:35:09;7.50;;;6.40;;
7191;SDS011;3637;51.494;11.958;2023-05-07T02:38:11;9.33;;;6.87;;
7191;SDS011;3637;51.494;11.958;2023-05-07T02:41:14;6.93;;;6.03;;
7191;SDS011;3637;51.494;11.958;2023-05-07T02:44:16;7.67;;;6.73;;
7191;SDS011;3637;51.494;11.958;2023-05-07T02:47:18;7.93;;;6.07;;
7191;SDS011;3637;51.494;11.958;2023-05-07T02:50:20;8.90;;;6.77;;
7191;SDS011;3637;51.494;11.958;2023-05-07T02:53:21;8.03;;;5.90;;
7191;SDS011;3637;51.494;11.958;2023-05-07T02:56:27;8.50;;;7.07;;
7191;SDS011;3637;51.494;11.958;2023-05-07T02:59:30;9.27;;;7.17;;
7191;SDS011;3637;51.494;11.958;2023-05-07T03:02:32;8.80;;;6.63;;
7191;SDS011;3637;51.494;11.958;2023-05-07T03:05:34;8.83;;;7.23;;
7191;SDS011;3637;51.494;11.958;2023-05-07T03:08:35;9.70;;;6.87;;
7191;SDS011;3637;51.494;11.958;2023-05-07T03:11:38;10.87;;;7.00;;
7191;SDS011;3637;51.494;11.958;2023-05-07T03:14:40;9.70;;;7.20;;
7191;SDS011;3637;51.494;11.958;2023-05-07T03:17:42;9.17;;;7.07;;
7191;SDS011;3637;51.494;11.958;2023-05-07T03:20:44;9.03;;;7.50;;
7191;SDS011;3637;51.494;11.958;2023-05-07T03:23:46;9.73;;;7.70;;
7191;SDS011;3637;51.494;11.958;2023-05-07T03:26:49;10.33;;;8.30;;
7191;SDS011;3637;51.494;11.958;2023-05-07T03:29:51;9.70;;;7.93;;
7191;SDS011;3637;51.494;11.958;2023-05-07T03:32:53;10.77;;;8.93;;
7191;SDS011;3637;51.494;11.958;2023-05-07T03:35:55;8.87;;;7.50;;
7191;SDS011;3637;51.494;11.958;2023-05-07T03:38:56;10.90;;;8.97;;
7191;SDS011;3637;51.494;11.958;2023-05-07T03:41:59;9.53;;;7.97;;
7191;SDS011;3637;51.494;11.958;2023-05-07T03:45:02;10.97;;;8.43;;
7191;SDS011;3637;51.494;11.958;2023-05-07T03:48:05;11.53;;;8.67;;
7191;SDS011;3637;51.494;11.958;2023-05-07T03:51:06;12.37;;;9.00;;
7191;SDS011;3637;51.494;11.958;2023-05-07T03:54:08;12.13;;;8.83;;
7191;SDS011;3637;51.494;11.958;2023-05-07T03:57:11;11.47;;;8.97;;
7191;SDS011;3637;51.494;11.958;2023-05-07T04:00:13;12.63;;;9.23;;
7191;SDS011;3637;51.494;11.958;2023-05-07T04:03:15;12.30;;;9.40;;
7191;SDS011;3637;51.494;11.958;2023-05-07T04:06:18;12.40;;;9.00;;
7191;SDS011;3637;51.494;11.958;2023-05-07T04:09:20;9.63;;;8.10;;
7191;SDS011;3637;51.494;11.958;2023-05-07T04:12:23;10.30;;;8.80;;
7191;SDS011;3637;51.494;11.958;2023-05-07T04:15:25;9.30;;;7.87;;
7191;SDS011;3637;51.494;11.958;2023-05-07T04:18:26;11.27;;;8.33;;
7191;SDS011;3637;51.494;11.958;2023-05-07T04:21:28;10.77;;;8.73;;
7191;SDS011;3637;51.494;11.958;2023-05-07T04:24:31;13.70;;;8.67;;
7191;SDS011;3637;51.494;11.958;2023-05-07T04:27:34;13.13;;;9.13;;
7191;SDS011;3637;51.494;11.958;2023-05-07T04:30:37;12.00;;;9.07;;
7191;SDS011;3637;51.494;11.958;2023-05-07T04:33:39;13.07;;;9.10;;
7191;SDS011;3637;51.494;11.958;2023-05-07T04:36:41;12.97;;;8.67;;
7191;SDS011;3637;51.494;11.958;2023-05-07T04:39:43;11.67;;;9.43;;
7191;SDS011;3637;51.494;11.958;2023-05-07T04:42:46;14.10;;;10.07;;
7191;SDS011;3637;51.494;11.958;2023-05-07T04:45:49;13.57;;;9.27;;
7191;SDS011;3637;51.494;11.958;2023-05-07T04:48:51;12.60;;;9.53;;
7191;SDS011;3637;51.494;11.958;2023-05-07T04:51:53;13.60;;;10.47;;
7191;SDS011;3637;51.494;11.958;2023-05-07T04:54:55;14.87;;;10.40;;
7191;SDS011;3637;51.494;11.958;2023-05-07T04:57:58;14.40;;;10.40;;
7191;SDS011;3637;51.494;11.958;2023-05-07T05:01:01;13.40;;;9.97;;
7191;SDS011;3637;51.494;11.958;2023-05-07T05:04:03;14.70;;;10.67;;
7191;SDS011;3637;51.494;11.958;2023-05-07T05:07:05;14.70;;;11.30;;
7191;SDS011;3637;51.494;11.958;2023-05-07T05:10:06;14.43;;;10.03;;
7191;SDS011;3637;51.494;11.958;2023-05-07T05:13:10;14.83;;;10.57;;
7191;SDS011;3637;51.494;11.958;2023-05-07T05:16:12;13.87;;;10.27;;
7191;SDS011;3637;51.494;11.958;2023-05-07T05:19:14;14.10;;;10.57;;
7191;SDS011;3637;51.494;11.958;2023-05-07T05:22:16;11.40;;;9.77;;
7191;SDS011;3637;51.494;11.958;2023-05-07T05:25:18;13.43;;;10.00;;
7191;SDS011;3637;51.494;11.958;2023-05-07T05:28:21;11.43;;;9.80;;
7191;SDS011;3637;51.494;11.958;2023-05-07T05:31:23;13.43;;;10.53;;
7191;SDS011;3637;51.494;11.958;2023-05-07T05:34:25;12.50;;;10.07;;
7191;SDS011;3637;51.494;11.958;2023-05-07T05:37:27;12.53;;;9.40;;
7191;SDS011;3637;51.494;11.958;2023-05-07T05:40:30;13.63;;;9.63;;
7191;SDS011;3637;51.494;11.958;2023-05-07T05:43:33;11.93;;;9.47;;
7191;SDS011;3637;51.494;11.958;2023-05-07T05:46:35;13.00;;;9.57;;
7191;SDS011;3637;51.494;11.958;2023-05-07T05:49:37;11.93;;;9.37;;
7191;SDS011;3637;51.494;11.958;2023-05-07T05:52:38;11.27;;;9.60;;
7191;SDS011;3637;51.494;11.958;2023-05-07T05:55:40;11.90;;;9.13;;
7191;SDS011;3637;51.494;11.958;2023-05-07T05:58:45;11.60;;;9.57;;
7191;SDS011;3637;51.494;11.958;2023-05-07T06:01:47;11.50;;;9.23;;
7191;SDS011;3637;51.494;11.958;2023-05-07T06:04:49;9.23;;;7.97;;
7191;SDS011;3637;51.494;11.958;2023-05-07T06:07:50;11.77;;;8.67;;
7191;SDS011;3637;51.494;11.958;2023-05-07T06:10:52;10.83;;;8.70;;
7191;SDS011;3637;51.494;11.958;2023-05-07T06:13:55;10.50;;;8.10;;
7191;SDS011;3637;51.494;11.958;2023-05-07T06:16:57;11.00;;;8.23;;
7191;SDS011;3637;51.494;11.958;2023-05-07T06:19:59;9.93;;;8.13;;
7191;SDS011;3637;51.494;11.958;2023-05-07T06:23:01;10.83;;;8.17;;
7191;SDS011;3637;51.494;11.958;2023-05-07T06:26:03;10.33;;;7.17;;
7191;SDS011;3637;51.494;11.958;2023-05-07T06:29:06;8.73;;;7.47;;
7191;SDS011;3637;51.494;11.958;2023-05-07T06:32:08;15.73;;;8.10;;
7191;SDS011;3637;51.494;11.958;2023-05-07T06:35:10;9.53;;;7.50;;
7191;SDS011;3637;51.494;11.958;2023-05-07T06:38:12;8.80;;;7.87;;
7191;SDS011;3637;51.494;11.958;2023-05-07T06:41:13;9.37;;;7.00;;
7191;SDS011;3637;51.494;11.958;2023-05-07T06:44:17;9.23;;;7.40;;
7191;SDS011;3637;51.494;11.958;2023-05-07T06:47:20;10.60;;;6.70;;
7191;SDS011;3637;51.494;11.958;2023-05-07T06:50:21;7.80;;;6.90;;
7191;SDS011;3637;51.494;11.958;2023-05-07T06:53:23;10.03;;;6.80;;
7191;SDS011;3637;51.494;11.958;2023-05-07T06:56:25;9.63;;;7.00;;
7191;SDS011;3637;51.494;11.958;2023-05-07T06:59:30;7.63;;;6.23;;
7191;SDS011;3637;51.494;11.958;2023-05-07T07:02:31;8.10;;;6.83;;
7191;SDS011;3637;51.494;11.958;2023-05-07T07:05:33;7.20;;;6.30;;
7191;SDS011;3637;51.494;11.958;2023-05-07T07:08:35;7.17;;;6.23;;
7191;SDS011;3637;51.494;11.958;2023-05-07T07:11:38;7.17;;;6.10;;
7191;SDS011;3637;51.494;11.958;2023-05-07T07:14:41;7.27;;;5.70;;
7191;SDS011;3637;51.494;11.958;2023-05-07T07:17:43;8.50;;;6.00;;
7191;SDS011;3637;51.494;11.958;2023-05-07T07:20:45;12.87;;;6.93;;
7191;SDS011;3637;51.494;11.958;2023-05-07T07:23:47;7.73;;;6.60;;
7191;SDS011;3637;51.494;11.958;2023-05-07T07:26:48;8.93;;;6.67;;
7191;SDS011;3637;51.494;11.958;2023-05-07T07:29:52;7.97;;;6.83;;
7191;SDS011;3637;51.494;11.958;2023-05-07T07:32:53;9.63;;;7.43;;
7191;SDS011;3637;51.494;11.958;2023-05-07T07:36:00;8.30;;;7.27;;
7191;SDS011;3637;51.494;11.958;2023-05-07T07:39:02;10.67;;;8.27;;
7191;SDS011;3637;51.494;11.958;2023-05-07T07:42:04;10.43;;;8.03;;
7191;SDS011;3637;51.494;11.958;2023-05-07T07:45:09;9.50;;;8.07;;
7191;SDS011;3637;51.494;11.958;2023-05-07T07:48:12;11.30;;;7.87;;
7191;SDS011;3637;51.494;11.958;2023-05-07T07:51:13;9.63;;;8.20;;
7191;SDS011;3637;51.494;11.958;2023-05-07T07:54:15;11.90;;;8.60;;
7191;SDS011;3637;51.494;11.958;2023-05-07T07:57:17;11.30;;;8.33;;
7191;SDS011;3637;51.494;11.958;2023-05-07T08:00:20;9.00;;;7.43;;
7191;SDS011;3637;51.494;11.958;2023-05-07T08:03:22;8.80;;;7.40;;
7191;SDS011;3637;51.494;11.958;2023-05-07T08:06:24;10.63;;;7.37;;
7191;SDS011;3637;51.494;11.958;2023-05-07T08:09:26;8.70;;;6.50;;
7191;SDS011;3637;51.494;11.958;2023-05-07T08:12:28;8.27;;;6.77;;
7191;SDS011;3637;51.494;11.958;2023-05-07T08:15:31;7.87;;;6.63;;
7191;SDS011;3637;51.494;11.958;2023-05-07T08:18:33;8.00;;;6.40;;
7191;SDS011;3637;51.494;11.958;2023-05-07T08:21:38;10.00;;;6.83;;
7191;SDS011;3637;51.494;11.958;2023-05-07T08:24:40;6.90;;;6.10;;
7191;SDS011;3637;51.494;11.958;2023-05-07T08:27:42;8.27;;;6.23;;
7191;SDS011;3637;51.494;11.958;2023-05-07T08:30:46;7.07;;;6.20;;
7191;SDS011;3637;51.494;11.958;2023-05-07T08:33:48;7.37;;;6.07;;
7191;SDS011;3637;51.494;11.958;2023-05-07T08:36:49;6.77;;;6.07;;
7191;SDS011;3637;51.494;11.958;2023-05-07T08:39:54;7.70;;;6.33;;
7191;SDS011;3637;51.494;11.958;2023-05-07T08:42:55;8.63;;;6.07;;
7191;SDS011;3637;51.494;11.958;2023-05-07T08:46:02;7.17;;;6.47;;
7191;SDS011;3637;51.494;11.958;2023-05-07T08:49:05;6.07;;;5.30;;
7191;SDS011;3637;51.494;11.958;2023-05-07T08:52:07;6.10;;;5.50;;
7191;SDS011;3637;51.494;11.958;2023-05-07T08:55:09;8.20;;;6.07;;
7191;SDS011;3637;51.494;11.958;2023-05-07T08:58:11;6.17;;;5.50;;
7191;SDS011;3637;51.494;11.958;2023-05-07T09:01:15;5.53;;;5.00;;
7191;SDS011;3637;51.494;11.958;2023-05-07T09:04:17;5.90;;;5.10;;
7191;SDS011;3637;51.494;11.958;2023-05-07T09:07:19;5.87;;;4.87;;
7191;SDS011;3637;51.494;11.958;2023-05-07T09:10:22;5.77;;;5.13;;
7191;SDS011;3637;51.494;11.958;2023-05-07T09:13:24;7.23;;;4.77;;
7191;SDS011;3637;51.494;11.958;2023-05-07T09:16:28;6.57;;;5.23;;
7191;SDS011;3637;51.494;11.958;2023-05-07T09:19:30;7.90;;;6.07;;
7191;SDS011;3637;51.494;11.958;2023-05-07T09:22:38;6.50;;;5.70;;
7191;SDS011;3637;51.494;11.958;2023-05-07T09:25:42;7.27;;;5.90;;
7191;SDS011;3637;51.494;11.958;2023-05-07T09:29:07;7.27;;;5.83;;
7191;SDS011;3637;51.494;11.958;2023-05-07T09:32:32;8.73;;;6.63;;
7191;SDS011;3637;51.494;11.958;2023-05-07T09:35:39;8.60;;;6.30;;
7191;SDS011;3637;51.494;11.958;2023-05-07T09:38:44;7.20;;;6.40;;
7191;SDS011;3637;51.494;11.958;2023-05-07T09:41:51;8.33;;;6.43;;
7191;SDS011;3637;51.494;11.958;2023-05-07T09:44:54;7.33;;;6.17;;
7191;SDS011;3637;51.494;11.958;2023-05-07T09:48:05;6.80;;;6.07;;
7191;SDS011;3637;51.494;11.958;2023-05-07T09:51:24;10.13;;;6.90;;
7191;SDS011;3637;51.494;11.958;2023-05-07T09:54:31;9.27;;;7.90;;
7191;SDS011;3637;51.494;11.958;2023-05-07T09:57:36;9.37;;;7.57;;
7191;SDS011;3637;51.494;11.958;2023-05-07T10:00:44;12.00;;;8.30;;
7191;SDS011;3637;51.494;11.958;2023-05-07T10:03:52;13.17;;;9.20;;
7191;SDS011;3637;51.494;11.958;2023-05-07T10:07:08;10.07;;;8.23;;
7191;SDS011;3637;51.494;11.958;2023-05-07T10:10:20;9.17;;;8.07;;
7191;SDS011;3637;51.494;11.958;2023-05-07T10:13:41;10.23;;;8.30;;
7191;SDS011;3637;51.494;11.958;2023-05-07T10:16:44;9.53;;;7.67;;
7191;SDS011;3637;51.494;11.958;2023-05-07T10:19:56;9.30;;;8.07;;
7191;SDS011;3637;51.494;11.958;2023-05-07T10:23:12;9.70;;;7.83;;
7191;SDS011;3637;51.494;11.958;2023-05-07T10:26:18;12.77;;;7.70;;
7191;SDS011;3637;51.494;11.958;2023-05-07T10:29:37;9.20;;;7.20;;
7191;SDS011;3637;51.494;11.958;2023-05-07T10:32:43;9.73;;;8.10;;
7191;SDS011;3637;51.494;11.958;2023-05-07T10:35:52;8.53;;;7.50;;
7191;SDS011;3637;51.494;11.958;2023-05-07T10:38:59;9.57;;;7.97;;
7191;SDS011;3637;51.494;11.958;2023-05-07T10:42:08;9.50;;;7.47;;
7191;SDS011;3637;51.494;11.958;2023-05-07T10:45:13;9.40;;;7.93;;
7191;SDS011;3637;51.494;11.958;2023-05-07T10:48:17;11.40;;;8.83;;
7191;SDS011;3637;51.494;11.958;2023-05-07T10:51:20;9.07;;;7.93;;
7191;SDS011;3637;51.494;11.958;2023-05-07T10:54:23;9.67;;;7.70;;
7191;SDS011;3637;51.494;11.958;2023-05-07T10:57:34;9.83;;;7.97;;
7191;SDS011;3637;51.494;11.958;2023-05-07T11:00:43;9.50;;;8.20;;
7191;SDS011;3637;51.494;11.958;2023-05-07T11:10:47;11.43;;;8.10;;
7191;SDS011;3637;51.494;11.958;2023-05-07T11:13:53;9.17;;;8.03;;
7191;SDS011;3637;51.494;11.958;2023-05-07T11:17:01;9.40;;;7.80;;
7191;SDS011;3637;51.494;11.958;2023-05-07T11:20:04;8.47;;;7.33;;
7191;SDS011;3637;51.494;11.958;2023-05-07T11:26:53;9.03;;;7.70;;
7191;SDS011;3637;51.494;11.958;2023-05-07T11:29:55;8.10;;;6.80;;
7191;SDS011;3637;51.494;11.958;2023-05-07T11:33:01;8.03;;;6.53;;
7191;SDS011;3637;51.494;11.958;2023-05-07T11:36:04;10.07;;;6.43;;
7191;SDS011;3637;51.494;11.958;2023-05-07T11:39:06;8.30;;;7.50;;
7191;SDS011;3637;51.494;11.958;2023-05-07T11:42:27;9.40;;;7.67;;
7191;SDS011;3637;51.494;11.958;2023-05-07T11:45:29;8.77;;;7.87;;
7191;SDS011;3637;51.494;11.958;2023-05-07T11:48:31;8.17;;;7.33;;
7191;SDS011;3637;51.494;11.958;2023-05-07T11:51:33;9.17;;;7.30;;
7191;SDS011;3637;51.494;11.958;2023-05-07T11:54:35;8.83;;;7.20;;
7191;SDS011;3637;51.494;11.958;2023-05-07T11:57:39;8.37;;;7.33;;
7191;SDS011;3637;51.494;11.958;2023-05-07T12:00:47;9.33;;;7.90;;
7191;SDS011;3637;51.494;11.958;2023-05-07T12:03:50;8.60;;;7.47;;
7191;SDS011;3637;51.494;11.958;2023-05-07T12:06:53;8.50;;;7.70;;
7191;SDS011;3637;51.494;11.958;2023-05-07T12:09:55;8.83;;;7.13;;
7191;SDS011;3637;51.494;11.958;2023-05-07T12:12:59;8.07;;;6.77;;
7191;SDS011;3637;51.494;11.958;2023-05-07T12:16:00;8.13;;;6.83;;
7191;SDS011;3637;51.494;11.958;2023-05-07T12:19:04;8.97;;;6.60;;
7191;SDS011;3637;51.494;11.958;2023-05-07T12:22:08;7.17;;;6.07;;
7191;SDS011;3637;51.494;11.958;2023-05-07T12:25:10;6.13;;;5.13;;
7191;SDS011;3637;51.494;11.958;2023-05-07T12:28:16;6.13;;;5.17;;
7191;SDS011;3637;51.494;11.958;2023-05-07T12:31:19;6.07;;;5.20;;
7191;SDS011;3637;51.494;11.958;2023-05-07T12:34:20;5.70;;;5.10;;
7191;SDS011;3637;51.494;11.958;2023-05-07T12:37:23;6.67;;;5.40;;
7191;SDS011;3637;51.494;11.958;2023-05-07T12:40:34;6.13;;;5.27;;
7191;SDS011;3637;51.494;11.958;2023-05-07T12:43:38;5.90;;;5.30;;
7191;SDS011;3637;51.494;11.958;2023-05-07T12:46:46;8.17;;;6.23;;
7191;SDS011;3637;51.494;11.958;2023-05-07T12:49:48;6.57;;;5.93;;
7191;SDS011;3637;51.494;11.958;2023-05-07T12:52:51;7.80;;;6.50;;
7191;SDS011;3637;51.494;11.958;2023-05-07T12:55:53;7.23;;;6.53;;
7191;SDS011;3637;51.494;11.958;2023-05-07T12:59:05;7.90;;;6.67;;
7191;SDS011;3637;51.494;11.958;2023-05-07T13:02:08;8.40;;;7.30;;
7191;SDS011;3637;51.494;11.958;2023-05-07T13:05:10;7.47;;;6.70;;
7191;SDS011;3637;51.494;11.958;2023-05-07T13:08:11;9.00;;;7.97;;
7191;SDS011;3637;51.494;11.958;2023-05-07T13:11:13;8.00;;;7.20;;
7191;SDS011;3637;51.494;11.958;2023-05-07T13:14:17;8.20;;;6.63;;
7191;SDS011;3637;51.494;11.958;2023-05-07T13:17:20;8.87;;;7.67;;
7191;SDS011;3637;51.494;11.958;2023-05-07T13:20:22;7.70;;;6.90;;
7191;SDS011;3637;51.494;11.958;2023-05-07T13:23:24;7.47;;;6.67;;
7191;SDS011;3637;51.494;11.958;2023-05-07T13:26:26;9.17;;;6.70;;
7191;SDS011;3637;51.494;11.958;2023-05-07T13:29:29;7.83;;;6.00;;
7191;SDS011;3637;51.494;11.958;2023-05-07T13:32:32;6.17;;;5.57;;
7191;SDS011;3637;51.494;11.958;2023-05-07T13:35:33;7.23;;;6.20;;
7191;SDS011;3637;51.494;11.958;2023-05-07T13:38:35;9.27;;;5.90;;
7191;SDS011;3637;51.494;11.958;2023-05-07T13:41:37;5.70;;;5.10;;
7191;SDS011;3637;51.494;11.958;2023-05-07T13:44:40;5.03;;;4.53;;
7191;SDS011;3637;51.494;11.958;2023-05-07T13:47:44;5.80;;;4.23;;
7191;SDS011;3637;51.494;11.958;2023-05-07T13:50:46;4.43;;;4.03;;
7191;SDS011;3637;51.494;11.958;2023-05-07T13:53:47;4.83;;;4.30;;
7191;SDS011;3637;51.494;11.958;2023-05-07T13:56:49;4.90;;;4.40;;
7191;SDS011;3637;51.494;11.958;2023-05-07T13:59:52;6.10;;;4.63;;
7191;SDS011;3637;51.494;11.958;2023-05-07T14:02:54;5.33;;;4.50;;
7191;SDS011;3637;51.494;11.958;2023-05-07T14:05:59;5.00;;;4.50;;
7191;SDS011;3637;51.494;11.958;2023-05-07T14:09:01;4.30;;;3.90;;
7191;SDS011;3637;51.494;11.958;2023-05-07T14:12:04;5.63;;;4.30;;
7191;SDS011;3637;51.494;11.958;2023-05-07T14:15:18;6.43;;;5.13;;
7191;SDS011;3637;51.494;11.958;2023-05-07T14:18:20;6.60;;;5.07;;
7191;SDS011;3637;51.494;11.958;2023-05-07T14:21:22;5.20;;;4.37;;
7191;SDS011;3637;51.494;11.958;2023-05-07T14:24:24;5.00;;;4.40;;
7191;SDS011;3637;51.494;11.958;2023-05-07T14:27:26;6.27;;;5.13;;
7191;SDS011;3637;51.494;11.958;2023-05-07T14:30:29;5.03;;;4.53;;
7191;SDS011;3637;51.494;11.958;2023-05-07T14:33:31;5.47;;;4.97;;
7191;SDS011;3637;51.494;11.958;2023-05-07T14:36:33;4.70;;;4.30;;
7191;SDS011;3637;51.494;11.958;2023-05-07T14:39:34;6.63;;;4.27;;
7191;SDS011;3637;51.494;11.958;2023-05-07T14:42:36;4.93;;;4.23;;
7191;SDS011;3637;51.494;11.958;2023-05-07T14:45:39;4.60;;;3.80;;
7191;SDS011;3637;51.494;11.958;2023-05-07T14:48:41;4.10;;;3.70;;
7191;SDS011;3637;51.494;11.958;2023-05-07T14:51:44;6.03;;;4.00;;
7191;SDS011;3637;51.494;11.958;2023-05-07T14:54:46;4.13;;;3.73;;
7191;SDS011;3637;51.494;11.958;2023-05-07T14:57:48;4.33;;;3.93;;
7191;SDS011;3637;51.494;11.958;2023-05-07T15:00:54;3.87;;;3.47;;
7191;SDS011;3637;51.494;11.958;2023-05-07T15:04:04;4.30;;;3.60;;
7191;SDS011;3637;51.494;11.958;2023-05-07T15:07:06;3.57;;;3.27;;
7191;SDS011;3637;51.494;11.958;2023-05-07T15:10:08;4.33;;;3.93;;
7191;SDS011;3637;51.494;11.958;2023-05-07T15:13:10;3.73;;;3.43;;
7191;SDS011;3637;51.494;11.958;2023-05-07T15:16:14;4.90;;;3.93;;
7191;SDS011;3637;51.494;11.958;2023-05-07T15:19:16;5.13;;;3.90;;
7191;SDS011;3637;51.494;11.958;2023-05-07T15:22:19;5.83;;;3.30;;
7191;SDS011;3637;51.494;11.958;2023-05-07T15:25:22;6.73;;;3.40;;
7191;SDS011;3637;51.494;11.958;2023-05-07T15:28:24;6.83;;;5.30;;
7191;SDS011;3637;51.494;11.958;2023-05-07T15:31:28;3.63;;;3.00;;
7191;SDS011;3637;51.494;11.958;2023-05-07T15:34:30;3.90;;;3.40;;
7191;SDS011;3637;51.494;11.958;2023-05-07T15:37:32;5.83;;;3.30;;
7191;SDS011;3637;51.494;11.958;2023-05-07T15:40:34;3.53;;;3.20;;
7191;SDS011;3637;51.494;11.958;2023-05-07T15:43:38;3.80;;;3.50;;
7191;SDS011;3637;51.494;11.958;2023-05-07T15:46:47;5.40;;;3.20;;
7191;SDS011;3637;51.494;11.958;2023-05-07T15:49:49;3.83;;;3.37;;
7191;SDS011;3637;51.494;11.958;2023-05-07T15:52:51;3.57;;;3.27;;
7191;SDS011;3637;51.494;11.958;2023-05-07T15:55:53;3.70;;;3.40;;
7191;SDS011;3637;51.494;11.958;2023-05-07T15:58:55;6.27;;;3.30;;
7191;SDS011;3637;51.494;11.958;2023-05-07T16:02:01;8.23;;;7.47;;
7191;SDS011;3637;51.494;11.958;2023-05-07T16:05:03;4.10;;;3.43;;
7191;SDS011;3637;51.494;11.958;2023-05-07T16:08:07;9.77;;;3.70;;
7191;SDS011;3637;51.494;11.958;2023-05-07T16:11:09;3.90;;;3.43;;
7191;SDS011;3637;51.494;11.958;2023-05-07T16:14:11;5.97;;;3.60;;
7191;SDS011;3637;51.494;11.958;2023-05-07T16:17:14;4.43;;;4.00;;
7191;SDS011;3637;51.494;11.958;2023-05-07T16:20:16;4.03;;;3.60;;
7191;SDS011;3637;51.494;11.958;2023-05-07T16:23:20;4.23;;;3.70;;
7191;SDS011;3637;51.494;11.958;2023-05-07T16:26:22;4.50;;;3.77;;
7191;SDS011;3637;51.494;11.958;2023-05-07T16:29:24;4.10;;;3.70;;
7191;SDS011;3637;51.494;11.958;2023-05-07T16:32:27;4.00;;;3.60;;
7191;SDS011;3637;51.494;11.958;2023-05-07T16:35:29;5.23;;;4.57;;
7191;SDS011;3637;51.494;11.958;2023-05-07T16:38:31;5.57;;;3.80;;
7191;SDS011;3637;51.494;11.958;2023-05-07T16:41:33;4.43;;;4.03;;
7191;SDS011;3637;51.494;11.958;2023-05-07T16:44:35;5.27;;;4.37;;
7191;SDS011;3637;51.494;11.958;2023-05-07T16:47:38;5.30;;;4.70;;
7191;SDS011;3637;51.494;11.958;2023-05-07T16:50:40;6.17;;;4.40;;
7191;SDS011;3637;51.494;11.958;2023-05-07T16:53:43;4.63;;;4.03;;
7191;SDS011;3637;51.494;11.958;2023-05-07T16:56:45;5.07;;;4.57;;
7191;SDS011;3637;51.494;11.958;2023-05-07T16:59:47;5.37;;;4.20;;
7191;SDS011;3637;51.494;11.958;2023-05-07T17:02:50;5.70;;;4.70;;
7191;SDS011;3637;51.494;11.958;2023-05-07T17:05:52;8.20;;;5.13;;
7191;SDS011;3637;51.494;11.958;2023-05-07T17:08:53;5.43;;;4.93;;
7191;SDS011;3637;51.494;11.958;2023-05-07T17:11:55;6.03;;;4.70;;
7191;SDS011;3637;51.494;11.958;2023-05-07T17:14:57;5.27;;;4.70;;
7191;SDS011;3637;51.494;11.958;2023-05-07T17:18:00;5.10;;;4.60;;
7191;SDS011;3637;51.494;11.958;2023-05-07T17:21:02;5.33;;;4.83;;
7191;SDS011;3637;51.494;11.958;2023-05-07T17:24:04;5.30;;;4.80;;
7191;SDS011;3637;51.494;11.958;2023-05-07T17:27:07;5.83;;;5.10;;
7191;SDS011;3637;51.494;11.958;2023-05-07T17:30:09;5.03;;;4.50;;
7191;SDS011;3637;51.494;11.958;2023-05-07T17:33:12;5.13;;;4.63;;
7191;SDS011;3637;51.494;11.958;2023-05-07T17:36:14;5.57;;;4.80;;
7191;SDS011;3637;51.494;11.958;2023-05-07T17:39:16;5.93;;;5.33;;
7191;SDS011;3637;51.494;11.958;2023-05-07T17:42:18;6.40;;;5.00;;
7191;SDS011;3637;51.494;11.958;2023-05-07T17:45:19;5.70;;;5.10;;
7191;SDS011;3637;51.494;11.958;2023-05-07T17:48:23;5.77;;;4.53;;
7191;SDS011;3637;51.494;11.958;2023-05-07T17:51:25;5.43;;;4.93;;
7191;SDS011;3637;51.494;11.958;2023-05-07T17:54:28;6.67;;;5.40;;
7191;SDS011;3637;51.494;11.958;2023-05-07T17:57:30;5.73;;;4.93;;
7191;SDS011;3637;51.494;11.958;2023-05-07T18:00:34;6.43;;;5.00;;
7191;SDS011;3637;51.494;11.958;2023-05-07T18:03:38;6.73;;;5.00;;
7191;SDS011;3637;51.494;11.958;2023-05-07T18:06:40;6.23;;;5.27;;
7191;SDS011;3637;51.494;11.958;2023-05-07T18:09:41;8.67;;;5.67;;
7191;SDS011;3637;51.494;11.958;2023-05-07T18:12:43;6.00;;;5.37;;
7191;SDS011;3637;51.494;11.958;2023-05-07T18:15:45;5.80;;;4.90;;
7191;SDS011;3637;51.494;11.958;2023-05-07T18:18:49;6.33;;;5.20;;
7191;SDS011;3637;51.494;11.958;2023-05-07T18:21:50;7.97;;;5.60;;
7191;SDS011;3637;51.494;11.958;2023-05-07T18:24:54;8.03;;;5.73;;
7191;SDS011;3637;51.494;11.958;2023-05-07T18:27:56;6.73;;;6.03;;
7191;SDS011;3637;51.494;11.958;2023-05-07T18:30:57;6.97;;;5.70;;
7191;SDS011;3637;51.494;11.958;2023-05-07T18:34:01;7.67;;;6.20;;
7191;SDS011;3637;51.494;11.958;2023-05-07T18:37:02;7.00;;;6.13;;
7191;SDS011;3637;51.494;11.958;2023-05-07T18:40:05;6.10;;;5.47;;
7191;SDS011;3637;51.494;11.958;2023-05-07T18:43:07;6.23;;;5.57;;
7191;SDS011;3637;51.494;11.958;2023-05-07T18:46:09;9.10;;;6.80;;
7191;SDS011;3637;51.494;11.958;2023-05-07T18:49:12;7.10;;;6.40;;